Time;durP1;ratioP1;P1;durP2;ratioP2;P2;SDS_P1;SDS_P2;PMS_P1;PMS_P2;Temp;Humidity;BMP_temperature;BMP_pressure;BME280_temperature;BME280_humidity;BME280_pressure;Samples;Min_cycle;Max_cycle;Signal;HPM_P1;HPM_P2
2021/07/27 00:00:43;;;;;;;12.28;9.43;;;;;;;19.60;84.20;100283.10;1657021;81;26484;-78
2021/07/27 00:03:12;;;;;;;16.23;10.68;;;;;;;19.59;84.31;100275.21;1724803;80;25843;-78
2021/07/27 00:05:39;;;;;;;23.62;10.35;;;;;;;19.57;84.26;100276.80;1732150;81;26065;-77
2021/07/27 00:08:07;;;;;;;12.40;10.25;;;;;;;19.56;84.32;100279.78;1724573;80;25837;-78
2021/07/27 00:10:39;;;;;;;48.30;11.12;;;;;;;19.51;84.41;100276.99;1688998;82;25780;-78
2021/07/27 00:13:06;;;;;;;11.30;10.18;;;;;;;19.50;84.47;100274.01;1733189;81;25813;-77
2021/07/27 00:15:33;;;;;;;11.43;10.20;;;;;;;19.48;84.35;100281.59;1733359;81;28594;-78
2021/07/27 00:18:00;;;;;;;11.97;10.70;;;;;;;19.46;84.32;100285.09;1681882;81;26021;-77
2021/07/27 00:20:27;;;;;;;13.13;10.78;;;;;;;19.44;84.12;100287.25;1679977;82;26389;-78
2021/07/27 00:22:54;;;;;;;12.70;10.65;;;;;;;19.41;84.27;100292.64;1714148;81;25979;-78
2021/07/27 00:25:21;;;;;;;16.25;12.03;;;;;;;19.39;84.44;100288.52;1738557;81;25770;-78
2021/07/27 00:27:48;;;;;;;15.50;11.60;;;;;;;19.39;84.48;100299.39;1703940;81;28076;-77
2021/07/27 00:30:16;;;;;;;15.88;11.97;;;;;;;19.36;84.58;100294.45;1669084;81;25674;-78
2021/07/27 00:32:44;;;;;;;14.73;11.70;;;;;;;19.35;84.74;100295.53;1724283;80;25770;-77
2021/07/27 00:35:13;;;;;;;14.43;11.73;;;;;;;19.36;84.96;100290.38;1750439;80;26414;-79
2021/07/27 00:37:46;;;;;;;14.23;11.78;;;;;;;19.35;84.85;100290.11;1715896;80;25832;-78
2021/07/27 00:40:14;;;;;;;14.15;11.90;;;;;;;19.35;84.84;100290.11;1701868;80;27580;-78
2021/07/27 00:42:45;;;;;;;21.42;13.65;;;;;;;19.34;84.85;100289.77;1717467;80;25896;-78
2021/07/27 00:45:16;;;;;;;20.92;13.20;;;;;;;19.35;84.92;100292.83;1753231;80;25818;-77
2021/07/27 00:47:43;;;;;;;67.30;12.45;;;;;;;19.35;85.11;100286.03;1702936;81;26488;-78
2021/07/27 00:50:12;;;;;;;60.65;12.47;;;;;;;19.34;85.03;100280.27;1663052;82;25904;-77
2021/07/27 00:52:40;;;;;;;42.35;12.63;;;;;;;19.32;85.02;100279.70;1711288;82;27530;-77
2021/07/27 00:55:09;;;;;;;51.42;11.93;;;;;;;19.30;85.19;100271.81;1734973;81;25761;-78
2021/07/27 00:57:38;;;;;;;19.92;11.22;;;;;;;19.30;85.18;100269.09;1701736;82;25857;-78
2021/07/27 01:00:06;;;;;;;11.83;10.43;;;;;;;19.28;85.04;100268.53;1684966;81;26603;-78
2021/07/27 01:02:33;;;;;;;14.43;12.55;;;;;;;19.24;84.98;100275.54;1756481;80;25900;-78
2021/07/27 01:05:01;;;;;;;18.92;12.50;;;;;;;19.24;85.21;100279.61;1750793;80;27534;-78
2021/07/27 01:07:28;;;;;;;20.57;14.10;;;;;;;19.22;85.50;100278.48;1704781;80;25854;-78
2021/07/27 01:09:56;;;;;;;20.80;13.98;;;;;;;19.19;85.68;100274.10;1695589;80;26055;-78
2021/07/27 01:12:23;;;;;;;64.17;15.75;;;;;;;19.22;85.99;100276.33;1731172;80;25916;-78
2021/07/27 01:14:50;;;;;;;33.15;14.70;;;;;;;19.24;86.10;100280.44;1744230;80;26513;-77
2021/07/27 01:17:17;;;;;;;48.35;13.22;;;;;;;19.25;86.22;100275.80;1716086;81;27518;-77
2021/07/27 01:19:58;;;;;;;37.35;13.13;;;;;;;19.25;86.03;100275.28;1700400;80;25542;-78
2021/07/27 01:44:06;;;;;;;48.10;13.05;;;;;;;19.03;86.61;100268.98;1757302;80;27349;-77
2021/07/27 01:46:34;;;;;;;47.70;12.43;;;;;;;19.04;86.64;100265.73;1751119;80;25756;-77
2021/07/27 01:49:02;;;;;;;89.20;12.93;;;;;;;19.03;86.72;100262.20;1693934;81;26294;-78
2021/07/27 01:51:31;;;;;;;52.33;12.60;;;;;;;19.02;86.61;100259.73;1709516;81;25875;-78
2021/07/27 01:54:01;;;;;;;63.73;11.33;;;;;;;19.00;86.49;100256.45;1720272;80;25795;-78
2021/07/27 01:56:30;;;;;;;43.65;11.30;;;;;;;18.96;86.40;100252.60;1752137;80;27159;-78
2021/07/27 01:58:57;;;;;;;53.20;10.75;;;;;;;18.89;86.32;100249.23;1693737;82;25801;-78
2021/07/27 02:01:26;;;;;;;30.68;10.90;;;;;;;18.84;86.39;100243.75;1681018;81;25904;-77
2021/07/27 02:03:56;;;;;;;36.70;11.05;;;;;;;18.75;86.39;100236.56;1740383;81;25951;-78
2021/07/27 02:06:23;;;;;;;31.17;10.68;;;;;;;18.69;86.38;100241.60;1710277;82;25789;-77
2021/07/27 02:08:51;;;;;;;17.57;10.43;;;;;;;18.63;86.45;100238.53;1668407;81;27638;-78
2021/07/27 02:11:20;;;;;;;26.73;11.55;;;;;;;18.63;86.67;100247.20;1701101;80;25830;-78
2021/07/27 02:13:49;;;;;;;17.90;11.25;;;;;;;18.60;86.70;100252.61;1750887;80;26414;-77
2021/07/27 02:16:16;;;;;;;30.80;11.18;;;;;;;18.58;86.81;100258.81;1752456;80;26285;-79
2021/07/27 02:18:43;;;;;;;16.40;12.68;;;;;;;18.57;86.86;100262.58;1686345;82;26630;-77
2021/07/27 02:21:10;;;;;;;23.77;12.53;;;;;;;18.58;86.87;100271.02;1692542;82;27185;-78
2021/07/27 02:23:38;;;;;;;17.20;11.80;;;;;;;18.55;86.83;100270.15;1738384;81;25871;-78
2021/07/27 02:26:05;;;;;;;30.32;12.75;;;;;;;18.55;87.06;100269.32;1736899;81;25793;-78
2021/07/27 02:28:33;;;;;;;21.12;12.30;;;;;;;18.56;87.00;100266.91;1697893;80;25862;-78
2021/07/27 02:31:03;;;;;;;21.02;11.85;;;;;;;18.57;87.07;100269.89;1689762;81;25974;-78
2021/07/27 02:33:40;;;;;;;22.15;11.83;;;;;;;18.57;86.97;100268.53;1716078;80;28258;-78
2021/07/27 02:36:04;;;;;;;14.45;10.95;;;;;;;18.55;86.94;100271.50;1682514;81;26204;-77
2021/07/27 02:38:31;;;;;;;16.57;10.95;;;;;;;18.53;86.82;100271.45;1703974;82;25794;-78
2021/07/27 02:41:00;;;;;;;23.62;11.43;;;;;;;18.52;86.83;100268.47;1731467;82;25830;-77
2021/07/27 02:43:29;;;;;;;27.58;12.05;;;;;;;18.54;86.78;100271.76;1705671;82;25811;-78
2021/07/27 02:45:56;;;;;;;14.63;11.38;;;;;;;18.53;86.68;100269.58;1669744;82;27528;-78
2021/07/27 02:48:23;;;;;;;24.47;11.83;;;;;;;18.53;86.65;100264.15;1706388;82;26531;-77
2021/07/27 02:51:01;;;;;;;40.92;11.95;;;;;;;18.52;86.56;100265.20;1705734;82;25857;-77
2021/07/27 02:53:32;;;;;;;39.65;11.33;;;;;;;18.52;86.52;100275.25;1734140;82;25747;-77
2021/07/27 02:56:00;;;;;;;37.50;10.38;;;;;;;18.52;86.38;100277.97;1660939;82;33546;-78
2021/07/27 02:58:29;;;;;;;17.70;9.98;;;;;;;18.48;86.33;100270.84;1713040;82;28453;-77
2021/07/27 03:00:56;;;;;;;31.62;10.55;;;;;;;18.46;86.36;100269.73;1730043;82;25769;-78
2021/07/27 03:03:24;;;;;;;11.95;10.45;;;;;;;18.46;86.34;100277.04;1699913;82;26011;-77
2021/07/27 03:05:59;;;;;;;24.05;11.00;;;;;;;18.45;86.49;100272.70;1687863;82;25951;-78
2021/07/27 03:08:35;;;;;;;21.12;10.45;;;;;;;18.43;86.39;100269.38;1714983;82;25785;-78
2021/07/27 03:10:56;;;;;;;29.52;11.50;;;;;;;18.41;86.39;100270.16;1732045;82;27572;-78
2021/07/27 03:13:23;;;;;;;42.80;10.95;;;;;;;18.39;86.39;100270.39;1708536;82;25919;-77
2021/07/27 03:15:50;;;;;;;22.75;10.63;;;;;;;18.37;86.37;100271.17;1697049;81;26586;-78
2021/07/27 03:18:17;;;;;;;18.02;10.18;;;;;;;18.34;86.45;100272.20;1703597;80;25878;-78
2021/07/27 03:20:44;;;;;;;19.77;9.93;;;;;;;18.34;86.50;100276.27;1756266;80;25856;-78
2021/07/27 03:23:27;;;;;;;13.50;9.55;;;;;;;18.32;86.59;100278.41;1701246;81;28196;-78
2021/07/27 03:25:54;;;;;;;13.90;10.60;;;;;;;18.32;86.69;100279.77;1722131;80;25822;-77
2021/07/27 03:28:21;;;;;;;20.02;10.43;;;;;;;18.33;86.74;100277.32;1700358;81;25742;-78
2021/07/27 03:30:50;;;;;;;12.18;9.85;;;;;;;18.35;86.68;100283.32;1719962;81;25924;-79
2021/07/27 03:33:17;;;;;;;13.32;9.90;;;;;;;18.34;86.72;100281.17;1746373;80;26645;-78
2021/07/27 03:35:44;;;;;;;11.50;9.70;;;;;;;18.33;86.73;100282.75;1689360;82;28215;-78
2021/07/27 03:38:11;;;;;;;14.83;10.93;;;;;;;18.36;86.78;100279.03;1707468;81;25903;-78
2021/07/27 03:40:39;;;;;;;15.53;12.15;;;;;;;18.36;86.86;100276.32;1722432;81;26123;-77
2021/07/27 03:43:06;;;;;;;20.37;14.98;;;;;;;18.36;86.88;100275.49;1699500;82;26099;-77
2021/07/27 03:45:33;;;;;;;21.45;14.45;;;;;;;18.36;86.99;100277.67;1673446;83;25857;-78
2021/07/27 03:48:03;;;;;;;24.77;16.23;;;;;;;18.40;87.00;100280.19;1697055;83;28425;-77
2021/07/27 03:50:30;;;;;;;19.73;13.58;;;;;;;18.42;86.87;100282.11;1723474;83;25836;-77
2021/07/27 03:52:57;;;;;;;19.85;15.35;;;;;;;18.38;86.67;100278.78;1698824;81;26522;-78
2021/07/27 03:55:24;;;;;;;20.52;14.87;;;;;;;18.39;86.85;100271.74;1674505;81;25853;-80
2021/07/27 03:57:53;;;;;;;36.33;13.50;;;;;;;18.43;86.83;100270.73;1698922;81;25982;-78
2021/07/27 04:00:22;;;;;;;25.45;11.85;;;;;;;18.44;86.76;100265.62;1697656;81;27489;-78
2021/07/27 04:02:49;;;;;;;33.25;12.65;;;;;;;18.43;86.73;100268.03;1695349;83;25708;-77
2021/07/27 04:05:16;;;;;;;15.30;11.60;;;;;;;18.41;86.76;100262.03;1675033;81;25822;-77
2021/07/27 04:07:44;;;;;;;29.72;12.15;;;;;;;18.42;86.98;100262.30;1724747;81;26718;-78
2021/07/27 04:10:11;;;;;;;14.28;11.83;;;;;;;18.42;87.09;100262.30;1757288;80;25934;-77
2021/07/27 04:12:38;;;;;;;21.90;12.25;;;;;;;18.44;87.24;100254.77;1716751;81;28330;-77
2021/07/27 04:15:08;;;;;;;38.10;12.23;;;;;;;18.45;87.16;100251.80;1669838;82;25944;-77
2021/07/27 04:17:35;;;;;;;28.57;12.17;;;;;;;18.50;87.25;100251.63;1707423;82;26171;-77
2021/07/27 04:20:03;;;;;;;19.10;11.83;;;;;;;18.52;87.38;100250.28;1729519;82;25820;-77
2021/07/27 04:22:30;;;;;;;23.55;12.93;;;;;;;18.54;87.42;100249.50;1702989;82;25895;-78
2021/07/27 04:24:58;;;;;;;18.20;12.20;;;;;;;18.58;87.53;100252.56;1690892;82;28333;-78
2021/07/27 04:27:25;;;;;;;15.78;12.88;;;;;;;18.62;87.56;100255.89;1712058;82;25825;-77
2021/07/27 04:29:53;;;;;;;16.65;12.45;;;;;;;18.68;87.70;100257.61;1735431;82;25890;-77
2021/07/27 04:32:20;;;;;;;13.83;12.43;;;;;;;18.73;87.84;100263.66;1710017;82;26160;-77
2021/07/27 04:34:47;;;;;;;13.35;11.78;;;;;;;18.80;88.14;100254.78;1678468;82;26018;-77
2021/07/27 04:37:14;;;;;;;14.83;12.47;;;;;;;18.90;88.43;100252.25;1685426;82;27462;-78
2021/07/27 04:39:41;;;;;;;14.10;12.55;;;;;;;18.98;88.55;100252.64;1733623;82;25883;-77
2021/07/27 04:42:12;;;;;;;15.78;14.13;;;;;;;19.08;88.74;100250.06;1714166;82;25591;-77
2021/07/27 04:44:39;;;;;;;13.95;12.10;;;;;;;19.16;88.99;100246.91;1682341;82;25931;-78
2021/07/27 04:47:06;;;;;;;15.15;13.48;;;;;;;19.20;88.74;100244.53;1710608;82;25714;-78
2021/07/27 04:49:33;;;;;;;16.07;12.95;;;;;;;19.24;89.10;100246.50;1737454;82;27577;-77
2021/07/27 04:52:00;;;;;;;15.55;13.75;;;;;;;19.29;89.03;100244.36;1689249;82;25948;-77
2021/07/27 04:54:29;;;;;;;16.73;13.72;;;;;;;19.33;89.14;100240.09;1665720;81;25818;-77
2021/07/27 04:56:56;;;;;;;15.40;13.80;;;;;;;19.34;89.31;100240.39;1692322;81;25870;-77
2021/07/27 04:59:23;;;;;;;14.30;12.82;;;;;;;19.39;89.10;100247.78;1724661;81;25783;-77
2021/07/27 05:01:50;;;;;;;15.03;13.45;;;;;;;19.43;89.40;100256.53;1703515;81;27407;-77
2021/07/27 05:04:17;;;;;;;14.63;12.58;;;;;;;19.47;89.48;100260.39;1637352;83;26297;-77
2021/07/27 05:06:44;;;;;;;15.40;13.83;;;;;;;19.50;89.33;100257.70;1698208;81;26403;-76
2021/07/27 05:09:11;;;;;;;16.87;15.08;;;;;;;19.56;89.70;100246.65;1694739;83;26557;-77
2021/07/27 05:11:38;;;;;;;16.07;14.40;;;;;;;19.65;89.83;100250.53;1722594;81;25948;-77
2021/07/27 05:14:08;;;;;;;17.25;14.93;;;;;;;19.71;90.10;100254.16;1701880;80;27553;-77
2021/07/27 05:16:35;;;;;;;16.37;14.65;;;;;;;19.78;90.17;100251.50;1692490;82;25765;-77
2021/07/27 05:19:07;;;;;;;16.50;14.80;;;;;;;19.89;90.37;100252.43;1721234;81;25886;-77
2021/07/27 05:21:34;;;;;;;19.20;16.12;;;;;;;19.98;90.60;100249.02;1692075;83;25997;-77
2021/07/27 05:24:02;;;;;;;17.75;15.85;;;;;;;20.11;90.53;100251.03;1664313;83;25997;-77
2021/07/27 05:26:29;;;;;;;18.67;16.70;;;;;;;20.17;90.50;100242.66;1701057;81;27609;-77
2021/07/27 05:28:56;;;;;;;18.45;15.65;;;;;;;20.27;90.59;100246.89;1729851;81;26452;-77
2021/07/27 05:31:26;;;;;;;17.45;15.60;;;;;;;20.36;90.77;100248.03;1692799;80;25556;-77
2021/07/27 05:33:53;;;;;;;17.75;16.00;;;;;;;20.47;90.88;100246.22;1710331;81;25853;-77
2021/07/27 05:36:20;;;;;;;18.62;16.00;;;;;;;20.58;91.08;100255.57;1710415;81;25901;-77
2021/07/27 05:38:47;;;;;;;17.92;15.63;;;;;;;20.72;91.32;100260.05;1705783;82;27482;-77
2021/07/27 05:41:15;;;;;;;18.82;16.70;;;;;;;20.83;91.38;100259.01;1709816;82;25898;-77
2021/07/27 05:43:44;;;;;;;17.48;15.68;;;;;;;20.91;90.92;100257.71;1680535;81;25824;-77
2021/07/27 05:46:11;;;;;;;17.60;15.80;;;;;;;20.97;90.62;100259.38;1707300;82;26556;-76
2021/07/27 05:48:40;;;;;;;18.52;16.62;;;;;;;21.06;90.81;100257.84;1733408;81;25723;-77
2021/07/27 05:51:10;;;;;;;20.95;15.45;;;;;;;21.17;90.73;100270.44;1710346;81;27557;-77
2021/07/27 05:53:35;;;;;;;17.35;15.63;;;;;;;21.25;90.79;100274.84;1684932;81;25906;-77
2021/07/27 05:56:02;;;;;;;18.98;17.07;;;;;;;21.36;90.81;100275.72;1709442;82;25832;-77
2021/07/27 05:58:29;;;;;;;18.45;16.57;;;;;;;21.55;90.80;100277.43;1738579;81;25846;-77
2021/07/27 06:00:56;;;;;;;22.13;18.37;;;;;;;21.71;90.52;100287.30;1738721;81;26655;-77
2021/07/27 06:03:23;;;;;;;20.80;18.32;;;;;;;21.85;90.16;100285.22;1681867;81;27520;-77
2021/07/27 06:05:51;;;;;;;20.85;18.67;;;;;;;22.00;90.45;100292.09;1730432;81;25945;-77
2021/07/27 06:08:18;;;;;;;20.70;18.60;;;;;;;22.18;90.54;100288.01;1738298;81;25310;-77
2021/07/27 06:10:45;;;;;;;22.37;18.75;;;;;;;22.36;90.20;100290.23;1710189;81;26503;-77
2021/07/27 06:13:12;;;;;;;21.85;18.35;;;;;;;22.54;90.69;100293.78;1687340;81;25850;-77
2021/07/27 06:15:39;;;;;;;21.35;18.75;;;;;;;22.74;89.25;100297.09;1721001;80;28296;-77
2021/07/27 06:18:06;;;;;;;24.00;19.02;;;;;;;22.91;89.10;100308.55;1735610;81;26119;-78
2021/07/27 06:20:33;;;;;;;24.12;18.55;;;;;;;23.14;89.56;100331.20;1643561;81;26613;-77
2021/07/27 06:23:00;;;;;;;19.02;17.02;;;;;;;23.35;89.93;100345.13;1704498;82;26552;-76
2021/07/27 06:25:27;;;;;;;22.95;18.85;;;;;;;23.45;89.16;100345.67;1733506;81;25859;-77
2021/07/27 06:27:54;;;;;;;22.30;18.50;;;;;;;23.44;88.63;100340.74;1707025;82;28081;-77
2021/07/27 06:30:21;;;;;;;22.20;18.98;;;;;;;23.50;88.26;100346.45;1691857;82;25803;-78
2021/07/27 06:32:48;;;;;;;32.58;19.48;;;;;;;23.55;88.00;100342.90;1687457;81;25894;-77
2021/07/27 06:35:16;;;;;;;22.75;20.17;;;;;;;23.52;87.45;100338.80;1729842;81;26510;-77
2021/07/27 06:37:43;;;;;;;25.60;22.32;;;;;;;23.50;86.91;100346.45;1736107;81;25933;-78
2021/07/27 06:40:11;;;;;;;31.73;25.48;;;;;;;23.45;86.57;100351.14;1698276;80;27642;-78
2021/07/27 06:42:38;;;;;;;29.10;25.37;;;;;;;23.33;85.59;100360.19;1707297;80;26066;-79
2021/07/27 06:45:07;;;;;;;27.73;24.75;;;;;;;23.30;85.04;100363.43;1752668;80;25881;-78
2021/07/27 06:47:34;;;;;;;31.30;27.90;;;;;;;23.21;85.12;100370.55;1736503;81;26365;-78
2021/07/27 07:07:14;;;;;;;24.77;22.07;;;;;;;23.92;80.10;100367.94;1762638;79;25624;-78
2021/07/27 07:09:41;;;;;;;27.07;22.02;;;;;;;23.68;80.47;100370.48;1700536;83;25796;-77
2021/07/27 07:12:10;;;;;;;22.27;20.02;;;;;;;23.50;81.07;100374.38;1719133;83;27555;-78
2021/07/27 07:14:37;;;;;;;22.58;19.57;;;;;;;23.33;81.04;100378.75;1671936;83;25803;-78
2021/07/27 07:17:04;;;;;;;22.70;20.08;;;;;;;23.17;81.10;100390.78;1696468;83;25850;-78
2021/07/27 07:19:31;;;;;;;25.90;20.72;;;;;;;23.03;81.07;100391.61;1696039;83;26460;-78
2021/07/27 07:21:58;;;;;;;24.72;20.23;;;;;;;22.88;81.41;100393.22;1717468;83;25826;-78
2021/07/27 07:24:25;;;;;;;24.02;19.92;;;;;;;22.76;81.53;100391.85;1696922;83;27437;-78
2021/07/27 07:26:52;;;;;;;23.95;18.57;;;;;;;22.67;81.82;100401.12;1630738;83;26150;-78
2021/07/27 07:41:09;;;;;;;21.57;16.97;;;;;;;22.81;80.24;100385.87;1806045;78;25718;-79
2021/07/27 07:43:38;;;;;;;20.23;16.60;;;;;;;22.59;81.11;100391.28;1768050;80;25916;-78
2021/07/27 07:46:05;;;;;;;20.17;17.00;;;;;;;22.39;81.31;100386.56;1770435;80;27498;-78
2021/07/27 07:48:32;;;;;;;17.37;15.45;;;;;;;22.25;81.87;100396.36;1744275;80;25829;-78
2021/07/27 07:50:59;;;;;;;18.42;15.60;;;;;;;22.12;82.11;100397.68;1700170;80;26610;-78
2021/07/27 07:53:26;;;;;;;18.37;15.63;;;;;;;22.00;82.44;100399.83;1720044;80;25752;-79
2021/07/27 07:55:54;;;;;;;21.12;17.60;;;;;;;21.89;82.46;100398.67;1769842;80;25724;-78
2021/07/27 07:58:21;;;;;;;22.48;16.93;;;;;;;21.79;82.72;100401.33;1744749;80;27429;-78
2021/07/27 08:00:48;;;;;;;18.67;15.68;;;;;;;21.73;83.19;100396.36;1710701;80;25954;-78
2021/07/27 08:03:14;;;;;;;16.85;15.05;;;;;;;21.71;83.33;100400.44;1712307;81;25712;-78
2021/07/27 08:05:42;;;;;;;19.27;16.52;;;;;;;21.68;83.43;100391.44;1763413;80;25951;-78
2021/07/27 08:08:09;;;;;;;19.20;15.00;;;;;;;21.68;83.71;100396.36;1742698;80;26084;-78
2021/07/27 08:10:36;;;;;;;17.25;15.38;;;;;;;21.68;83.79;100395.53;1722363;80;28186;-78
2021/07/27 08:13:03;;;;;;;16.48;14.68;;;;;;;21.61;83.61;100390.31;1727229;80;25809;-78
2021/07/27 08:15:30;;;;;;;17.05;15.25;;;;;;;21.57;83.71;100381.02;1752375;81;25741;-78
2021/07/27 08:17:57;;;;;;;22.62;15.68;;;;;;;21.54;84.17;100378.81;1742752;81;25983;-78
2021/07/27 08:20:25;;;;;;;19.70;16.32;;;;;;;21.51;84.43;100374.70;1680726;81;26546;-78
2021/07/27 08:22:53;;;;;;;20.85;15.85;;;;;;;21.43;84.82;100362.12;1689076;81;27459;-78
2021/07/27 08:25:21;;;;;;;18.92;15.78;;;;;;;21.34;85.15;100360.99;1753024;81;25912;-78
2021/07/27 08:27:49;;;;;;;16.82;14.90;;;;;;;21.27;85.45;100357.13;1747369;81;26509;-78
2021/07/27 08:30:17;;;;;;;17.25;15.55;;;;;;;21.18;85.83;100366.88;1686782;81;25782;-80
2021/07/27 08:32:52;;;;;;;23.32;19.65;;;;;;;21.12;85.96;100382.08;1695316;81;25919;-78
2021/07/27 08:35:21;;;;;;;21.23;16.45;;;;;;;21.13;86.62;100395.95;1747093;81;27427;-78
2021/07/27 08:37:50;;;;;;;18.75;16.23;;;;;;;21.15;86.71;100393.83;1718763;81;25969;-79
2021/07/27 08:40:19;;;;;;;19.57;16.48;;;;;;;21.17;87.06;100391.09;1704927;81;25835;-78
2021/07/27 08:42:47;;;;;;;18.30;15.98;;;;;;;21.13;86.87;100394.59;1710874;81;25823;-78
2021/07/27 08:45:15;;;;;;;19.52;16.57;;;;;;;21.11;87.08;100405.76;1753478;80;25848;-79
2021/07/27 08:47:48;;;;;;;18.32;15.60;;;;;;;21.10;87.39;100397.86;1720699;81;27553;-78
2021/07/27 08:50:17;;;;;;;19.90;15.30;;;;;;;21.02;87.53;100395.02;1671595;81;25862;-78
2021/07/27 08:52:44;;;;;;;19.92;16.40;;;;;;;20.98;87.80;100397.98;1699736;81;25981;-78
2021/07/27 08:55:13;;;;;;;18.60;16.17;;;;;;;20.95;88.45;100390.36;1755883;80;26022;-78
2021/07/27 08:57:56;;;;;;;19.45;17.05;;;;;;;20.92;88.34;100396.31;1718451;81;25920;-78
2021/07/27 09:00:26;;;;;;;20.72;16.50;;;;;;;20.97;89.26;100386.84;1690045;81;27521;-79
2021/07/27 09:02:53;;;;;;;20.08;17.98;;;;;;;21.00;89.06;100389.58;1720209;81;25949;-78
2021/07/27 09:05:20;;;;;;;19.30;16.73;;;;;;;20.99;89.21;100381.95;1768954;80;25711;-79
2021/07/27 09:07:47;;;;;;;18.92;16.15;;;;;;;21.01;90.13;100378.42;1743243;80;26335;-78
2021/07/27 09:10:23;;;;;;;18.45;16.57;;;;;;;21.01;89.09;100382.50;1726559;81;25765;-78
2021/07/27 09:13:09;;;;;;;20.90;17.37;;;;;;;21.08;90.41;100405.47;1711067;81;27513;-78
2021/07/27 09:15:38;;;;;;;21.42;19.12;;;;;;;21.18;89.92;100411.81;1759504;81;26378;-78
2021/07/27 09:18:09;;;;;;;22.17;18.75;;;;;;;21.32;90.24;100413.00;1724392;81;25790;-79
2021/07/27 09:20:53;;;;;;;20.65;18.00;;;;;;;21.48;90.52;100407.13;1730519;80;25805;-79
2021/07/27 09:23:23;;;;;;;21.27;17.90;;;;;;;21.61;90.63;100408.03;1727279;82;25730;-78
2021/07/27 09:25:53;;;;;;;19.23;16.43;;;;;;;21.76;90.51;100400.48;1758318;80;27607;-78
2021/07/27 09:28:21;;;;;;;19.90;17.50;;;;;;;21.86;90.16;100399.19;1732170;81;25781;-77
2021/07/27 09:30:50;;;;;;;20.10;17.92;;;;;;;21.93;89.83;100407.95;1697568;81;25816;-79
2021/07/27 09:33:19;;;;;;;22.95;17.35;;;;;;;22.06;90.77;100408.30;1692890;81;25829;-79
2021/07/27 09:35:46;;;;;;;20.00;16.17;;;;;;;22.17;89.51;100401.80;1732641;81;25769;-78
2021/07/27 09:38:20;;;;;;;18.70;16.57;;;;;;;22.22;88.64;100399.08;1703950;81;28184;-78
2021/07/27 09:40:56;;;;;;;18.45;16.65;;;;;;;22.36;89.31;100398.03;1702992;81;26124;-79
2021/07/27 09:43:25;;;;;;;18.90;16.77;;;;;;;22.54;89.39;100402.98;1724423;81;25815;-77
2021/07/27 09:45:56;;;;;;;17.00;15.25;;;;;;;22.81;89.98;100407.72;1752616;81;25801;-79
2021/07/27 09:48:24;;;;;;;19.00;15.58;;;;;;;22.98;88.84;100403.35;1732717;81;25853;-78
2021/07/27 09:50:54;;;;;;;15.75;14.25;;;;;;;23.08;88.65;100405.25;1703864;80;28210;-79
2021/07/27 09:53:22;;;;;;;16.23;14.10;;;;;;;23.17;87.84;100409.08;1714470;81;25869;-78
2021/07/27 09:55:50;;;;;;;17.37;15.30;;;;;;;23.24;87.12;100410.45;1730467;82;25819;-78
2021/07/27 09:58:19;;;;;;;18.73;16.67;;;;;;;23.32;86.49;100406.34;1745408;81;25764;-79
2021/07/27 10:00:56;;;;;;;19.35;15.93;;;;;;;23.42;87.33;100400.88;1702293;80;26224;-79
2021/07/27 10:03:27;;;;;;;17.12;15.32;;;;;;;23.54;86.71;100398.16;1739375;81;28140;-79
2021/07/27 10:06:02;;;;;;;16.95;15.15;;;;;;;23.59;86.71;100395.39;1753642;80;25828;-78
2021/07/27 10:08:33;;;;;;;16.35;14.35;;;;;;;23.66;86.03;100400.57;1733650;80;25837;-79
2021/07/27 10:11:13;;;;;;;16.37;14.78;;;;;;;23.68;85.54;100402.48;1737335;80;25811;-78
2021/07/27 10:13:46;;;;;;;;;;;;;;;23.77;85.65;100398.09;1725085;81;25773;-78
2021/07/27 10:16:24;;;;;;;18.60;15.65;;;;;;;23.81;85.11;100399.70;1750572;81;27487;-79
2021/07/27 10:18:52;;;;;;;16.75;15.18;;;;;;;23.85;85.62;100392.58;1711829;81;25842;-78
2021/07/27 10:21:28;;;;;;;16.27;14.70;;;;;;;23.95;85.30;100396.66;1704628;82;25977;-79
2021/07/27 10:23:58;;;;;;;17.02;15.25;;;;;;;24.10;85.74;100398.80;1712855;81;25847;-78
2021/07/27 10:26:34;;;;;;;16.80;14.80;;;;;;;24.28;85.32;100402.83;1751481;80;25281;-79
2021/07/27 10:29:01;;;;;;;17.52;15.65;;;;;;;24.55;86.19;100401.84;1709360;83;28260;-79
2021/07/27 10:31:38;;;;;;;15.40;13.83;;;;;;;24.80;84.58;100405.02;1693832;82;25796;-78
2021/07/27 10:34:10;;;;;;;17.57;13.45;;;;;;;24.93;83.64;100402.46;1709182;82;25828;-78
2021/07/27 10:36:43;;;;;;;14.28;12.80;;;;;;;24.96;81.41;100408.72;1740142;81;26193;-79
2021/07/27 10:39:17;;;;;;;13.40;12.07;;;;;;;24.97;81.80;100406.27;1663886;82;25812;-78
2021/07/27 10:41:50;;;;;;;14.98;12.75;;;;;;;24.98;80.44;100406.52;1732005;81;28208;-78
2021/07/27 10:44:23;;;;;;;14.95;13.45;;;;;;;24.95;79.80;100409.02;1705435;82;26072;-78
2021/07/27 10:46:52;;;;;;;14.65;12.50;;;;;;;24.94;80.09;100410.11;1738633;81;25298;-77
2021/07/27 10:49:24;;;;;;;13.75;12.37;;;;;;;24.95;79.63;100410.39;1694494;81;25883;-78
2021/07/27 10:51:54;;;;;;;14.68;13.15;;;;;;;25.03;79.39;100407.86;1722711;81;25353;-78
2021/07/27 10:54:30;;;;;;;14.95;13.05;;;;;;;25.18;79.36;100416.50;1714426;81;27623;-78
2021/07/27 10:57:01;;;;;;;14.00;12.45;;;;;;;25.33;79.00;100415.55;1754926;81;25855;-78
2021/07/27 10:59:31;;;;;;;14.55;13.15;;;;;;;25.47;79.25;100419.30;1685085;81;25852;-78
2021/07/27 11:01:59;;;;;;;15.35;12.65;;;;;;;25.63;79.38;100414.73;1720858;81;25983;-79
2021/07/27 11:04:29;;;;;;;14.90;13.40;;;;;;;25.77;79.06;100410.76;1727398;81;25833;-79
2021/07/27 11:07:17;;;;;;;17.55;15.68;;;;;;;25.91;78.50;100410.31;1759206;80;27528;-79
2021/07/27 11:09:53;;;;;;;16.65;14.33;;;;;;;26.02;77.96;100406.34;1682048;81;26318;-79
2021/07/27 11:12:39;;;;;;;15.50;14.07;;;;;;;26.16;78.43;100407.28;1750151;81;26432;-78
2021/07/27 11:15:21;;;;;;;18.10;14.78;;;;;;;26.29;77.38;100409.31;1722404;81;26526;-78
2021/07/27 11:18:00;;;;;;;17.20;15.43;;;;;;;26.38;75.92;100404.80;1725427;81;26545;-78
2021/07/27 11:20:38;;;;;;;19.70;17.60;;;;;;;26.46;75.92;100404.68;1702841;81;27477;-78
2021/07/27 11:23:18;;;;;;;18.82;16.67;;;;;;;26.47;75.15;100405.78;1708191;81;26530;-79
2021/07/27 11:25:57;;;;;;;17.20;15.50;;;;;;;26.44;74.97;100412.41;1754570;81;26310;-79
2021/07/27 11:28:39;;;;;;;17.85;16.05;;;;;;;26.40;74.84;100402.58;1746627;80;26037;-78
2021/07/27 11:31:20;;;;;;;18.02;16.23;;;;;;;26.37;74.78;100400.41;1706742;82;25854;-79
2021/07/27 11:33:52;;;;;;;17.17;15.38;;;;;;;26.38;75.03;100399.86;1715013;82;27559;-78
2021/07/27 11:36:26;;;;;;;17.73;16.02;;;;;;;26.35;74.12;100403.18;1729035;82;25845;-78
2021/07/27 11:39:07;;;;;;;16.35;14.70;;;;;;;26.33;73.49;100401.29;1702760;80;25784;-78
2021/07/27 11:41:34;;;;;;;14.07;12.68;;;;;;;26.42;73.61;100397.59;1716642;82;25932;-78
2021/07/27 11:44:01;;;;;;;14.13;12.82;;;;;;;26.61;73.14;100394.30;1731537;81;25832;-79
2021/07/27 11:46:38;;;;;;;14.53;13.05;;;;;;;26.75;72.07;100390.28;1753880;79;27554;-78
2021/07/27 11:49:09;;;;;;;13.72;12.47;;;;;;;26.92;72.20;100386.44;1693461;80;25985;-79
2021/07/27 11:51:37;;;;;;;13.25;11.88;;;;;;;27.05;71.36;100391.14;1701688;80;26480;-79
2021/07/27 11:54:04;;;;;;;12.60;11.40;;;;;;;27.07;70.74;100395.81;1699168;80;26522;-78
2021/07/27 11:56:31;;;;;;;11.22;10.13;;;;;;;27.15;69.80;100396.50;1763124;81;25779;-77
2021/07/27 11:59:06;;;;;;;10.30;9.35;;;;;;;27.26;69.40;100387.51;1694703;82;28076;-78
2021/07/27 12:01:43;;;;;;;11.78;10.53;;;;;;;27.36;67.75;100386.80;1724202;81;26058;-78
2021/07/27 12:04:10;;;;;;;11.75;10.65;;;;;;;27.44;67.40;100383.34;1712356;82;25847;-77
2021/07/27 12:06:53;;;;;;;12.25;11.15;;;;;;;27.56;67.31;100383.41;1717450;81;25790;-78
2021/07/27 12:09:22;;;;;;;12.03;10.70;;;;;;;27.67;66.78;100377.98;1687679;81;26173;-78